Rio Branco の空港の天気 - METARとTAF

リオブランコ国際空港 ( SBRB / RBR ) - ブラジル アクレ州、Rio Branco
飛行場実況気象(Metar)
観測時間02/06 14:00 ACT (02/06 19:00 UTC)
風向・風速西南西 2m/s
視程10km以上
天気現象
全天の8割程度の雲 雲底高度 760m
気温28℃
湿度74%
気圧1011hPa
METARSBRB 061900Z 24004KT 270V020 9999 BKN025 28/23 Q1011
過去の天気等 Google飛行場航空写真 Wunderground天気予報

過去48時間のMETAR

飛行場予報(TAF)
発表時間: 2/06 11:00 ACT (2/06 16:00 UTC)
予報対象時間: 6日13時 ACT ~ 7日1時 ACT
風向・風速東北東 3m/s
視程10km以上
全天の8割程度の雲 雲底高度 490m
少しの塔状積雲 雲底高度 910m
6日14時 ACT ~ 6日18時 ACT に一時的に
視程6000m
天気現象しゅう雨
全天の8割程度の雲 雲底高度 610m
少しの塔状積雲 雲底高度 910m
6日19時 ACT ~ 6日21時 ACT に徐々に
風向・風速北北東 3m/s
全天の8割程度の雲 雲底高度 240m
少しの塔状積雲 雲底高度 610m
TAF SBRB 061600Z 0618/0706 06005KT 9999 BKN016 FEW030TCU TX29/0618Z TN22/0706Z
TEMPO 0619/0623 6000 SHRA BKN020 FEW030TCU
BECMG 0700/0702 03005KT BKN008 FEW020TCU RMK PGY